Greenfield, Missouri
Current Conditions -  °F | °C
As of 9:52 AM on Sunday 23 Nov 2014 (Local Time) from KSGF Reporting Station
Haze Haze  
Wind Chill: 55°   Ceiling: 500
Heat Index: 55°   Visibility: 5mi
Dew Point: 53°   Wind: 16mph
Humidity: 93%   Direction: 150°SSE
Pressure: 29.51"   Gusts: NA
Location:  37.42°N, 93.84°W
Report Text: KSGF 231552Z 15014KT 5SM BR OVC005 13/12 A2951 RMK AO2 RAB1457E13 SLP990 P0001 T01280117
Loading
Personal Weather Stations






























Interactive Weather Map New forecast layout! Learn more

10-Day Weather Forecast

Advertisements
Track Severe Weather on mobile